Date,TemperatureHighF,TemperatureAvgF,TemperatureLowF,DewpointHighF,DewpointAvgF,DewpointLowF,HumidityHigh,HumidityAvg,HumidityLow,PressureMaxIn,PressureMinIn,WindSpeedMaxMPH,WindSpeedAvgMPH,GustSpeedMaxMPH,PrecipitationSumIn
2014-2-1,29.7,29.7,29.7,12.9,12.9,12.9,49,49,49,30.42,29.88,6,6,0,0.00
2014-2-2,29.7,29.7,29.7,12.9,12.9,12.9,49,49,49,30.44,17.20,6,6,6,0.00
2014-2-3,29.7,23.4,13.2,17.0,13.8,-2.4,92,68,49,32.48,20.63,7,3,7,0.01
2014-2-4,18.0,18.0,18.0,13.7,13.7,13.7,83,83,83,32.39,20.63,0,0,0,0.00
2014-2-5,25.9,19.9,18.0,21.2,15.7,13.7,86,84,81,32.39,20.63,18,1,18,0.00
2014-2-6,22.7,14.9,4.0,19.1,10.2,-1.6,86,81,72,32.24,17.10,16,3,16,0.00
2014-2-7,14.0,7.2,-0.2,4.3,0.3,-5.7,82,73,63,30.61,20.67,13,1,13,0.00
2014-2-8,22.3,14.9,8.4,17.5,8.9,1.8,82,77,74,32.15,20.63,11,1,11,0.00
2014-2-9,22.2,19.7,15.1,18.1,14.7,9.8,89,81,76,30.51,17.20,16,2,16,0.00
2014-2-10,15.1,11.2,3.5,9.8,5.2,-1.5,96,76,63,32.48,20.67,10,2,10,0.00
2014-2-11,14.3,8.1,-7.2,5.8,1.7,-13.2,85,74,67,30.72,20.67,9,0,9,0.00
2014-2-12,27.9,16.0,7.8,13.1,6.8,1.8,80,67,47,30.04,20.67,7,0,7,0.01
2014-2-13,35.9,25.8,10.7,15.6,12.1,1.6,81,57,36,30.48,20.71,7,1,10,0.03
2014-2-14,29.9,23.6,16.2,18.1,15.7,11.0,88,73,54,30.47,20.71,13,2,13,0.00
2014-2-15,25.2,20.7,17.1,16.5,15.5,13.1,88,81,67,30.52,20.73,7,2,13,0.08
2014-2-16,24.6,11.8,0.0,19.4,9.2,0.0,84,40,75,30.78,20.67,15,1,15,0.00
2014-2-17,34.4,27.2,23.5,32.8,23.2,17.4,94,85,70,30.50,20.68,16,3,23,0.00
2014-2-18,47.0,40.0,33.2,32.0,31.1,27.9,92,72,50,30.48,20.65,23,6,23,0.18
2014-2-19,45.0,41.2,34.9,34.7,31.6,29.5,84,69,59,32.44,20.16,21,6,21,0.00
2014-2-20,34.9,34.9,34.9,30.6,30.6,30.6,84,84,84,30.22,20.67,0,0,0,0.00
2014-2-21,41.7,36.8,34.9,30.6,26.5,17.1,84,68,38,30.70,20.67,28,4,28,0.00
2014-2-22,46.2,39.5,37.0,32.2,27.2,24.0,69,61,56,31.51,20.70,13,4,13,0.00
2014-2-23,37.6,34.2,26.3,26.9,23.7,14.8,68,65,57,32.16,20.63,17,1,17,0.00
2014-2-24,29.4,25.9,19.3,17.2,14.8,10.2,70,63,49,24.13,17.20,21,3,21,0.00
2014-2-25,25.5,24.3,21.5,18.7,15.5,14.3,80,69,62,24.12,20.63,16,4,16,0.00
2014-2-26,23.0,18.5,8.4,16.0,7.9,0.6,76,63,49,30.53,20.68,18,5,18,0.00
2014-2-27,17.5,15.6,12.3,4.3,1.9,-2.3,65,54,44,32.12,20.67,27,4,27,0.00
2014-2-28,33.9,21.9,12.3,11.5,5.6,1.1,63,50,33,30.50,20.67,18,2,18,0.00